createdAt,value
2023-03-29T00:01:07.627Z,39.66
2023-03-29T00:03:34.428Z,40.55
2023-03-29T00:06:01.237Z,41.02
2023-03-29T00:08:27.822Z,41.53
2023-03-29T00:10:57.103Z,39.92
2023-03-29T00:13:23.681Z,39.94
2023-03-29T00:15:50.673Z,40.12
2023-03-29T00:18:18.232Z,40.09
2023-03-29T00:20:44.775Z,39.23
2023-03-29T00:23:11.689Z,40.64
2023-03-29T00:25:38.484Z,40.95
2023-03-29T00:28:04.955Z,40.29
2023-03-29T00:30:32.428Z,40.84
2023-03-29T00:32:59.250Z,40.81
2023-03-29T00:35:27.611Z,41.09
2023-03-29T00:37:54.904Z,38.85
2023-03-29T00:40:23.888Z,38.48
2023-03-29T00:42:50.737Z,37.00
2023-03-29T00:45:17.620Z,38.55
2023-03-29T00:47:44.503Z,37.71
2023-03-29T00:50:11.366Z,39.50
2023-03-29T00:52:38.246Z,42.55
2023-03-29T00:55:04.763Z,41.67
2023-03-29T00:57:31.944Z,41.07
2023-03-29T00:59:59.519Z,40.64
2023-03-29T01:02:26.166Z,41.29
2023-03-29T01:04:52.640Z,39.55
2023-03-29T01:07:19.425Z,39.68
2023-03-29T01:09:46.927Z,40.99
2023-03-29T01:12:13.535Z,39.66
2023-03-29T01:14:40.365Z,40.27
2023-03-29T01:17:07.168Z,40.73
2023-03-29T01:19:33.756Z,39.21
2023-03-29T01:22:00.666Z,39.57
2023-03-29T01:24:29.687Z,38.77
2023-03-29T01:29:41.885Z,39.17
2023-03-29T01:32:08.800Z,39.83
2023-03-29T01:34:35.618Z,41.49
2023-03-29T01:37:02.415Z,39.56
2023-03-29T01:39:29.988Z,40.38
2023-03-29T01:41:56.732Z,38.39
2023-03-29T01:44:23.290Z,38.04
2023-03-29T01:46:50.087Z,36.69
2023-03-29T01:49:16.667Z,36.27
2023-03-29T01:51:45.078Z,35.30
2023-03-29T01:54:11.649Z,36.52
2023-03-29T01:56:38.481Z,37.24
2023-03-29T01:59:05.279Z,38.17
2023-03-29T02:01:41.543Z,37.28
2023-03-29T02:04:08.423Z,35.69
2023-03-29T02:06:34.957Z,36.09
2023-03-29T02:09:07.891Z,34.95
2023-03-29T02:11:35.489Z,36.89
2023-03-29T02:16:33.864Z,36.96
2023-03-29T02:19:00.413Z,36.91
2023-03-29T02:21:28.250Z,36.37
2023-03-29T02:23:55.234Z,35.76
2023-03-29T02:26:23.242Z,35.27
2023-03-29T02:28:52.353Z,34.71
2023-03-29T02:31:19.240Z,35.48
2023-03-29T02:33:45.861Z,38.32
2023-03-29T02:36:12.669Z,38.13
2023-03-29T02:38:40.063Z,36.25
2023-03-29T02:41:06.996Z,36.05
2023-03-29T02:46:23.768Z,37.56
2023-03-29T02:48:53.172Z,36.57
2023-03-29T02:51:20.922Z,37.04
2023-03-29T02:53:48.522Z,38.14
2023-03-29T02:56:16.096Z,38.27
2023-03-29T02:58:43.664Z,37.35
2023-03-29T03:01:10.529Z,36.50
2023-03-29T03:03:37.267Z,35.55
2023-03-29T03:06:04.029Z,35.38
2023-03-29T03:08:30.727Z,36.60
2023-03-29T03:10:57.596Z,37.66
2023-03-29T03:13:24.436Z,37.43
2023-03-29T03:15:51.045Z,36.01
2023-03-29T03:18:17.679Z,37.35
2023-03-29T03:20:44.758Z,37.03
2023-03-29T03:23:15.545Z,36.98
2023-03-29T03:25:42.374Z,35.62
2023-03-29T03:28:11.327Z,35.09
2023-03-29T03:30:38.466Z,33.93
2023-03-29T03:33:05.396Z,34.73
2023-03-29T03:35:35.169Z,36.80
2023-03-29T03:38:02.471Z,39.40
2023-03-29T03:40:29.021Z,39.42
2023-03-29T03:42:56.196Z,40.86
2023-03-29T03:45:22.921Z,41.21
2023-03-29T03:47:50.707Z,42.21
2023-03-29T03:50:17.354Z,42.35
2023-03-29T03:52:43.995Z,40.99
2023-03-29T03:55:10.876Z,40.64
2023-03-29T03:57:37.708Z,40.72
2023-03-29T04:00:06.748Z,40.56
2023-03-29T04:02:33.481Z,40.12
2023-03-29T04:05:01.068Z,40.59
2023-03-29T04:07:31.708Z,40.02
2023-03-29T04:10:00.882Z,39.28
2023-03-29T04:12:27.731Z,40.90
2023-03-29T04:14:54.521Z,42.55
2023-03-29T04:17:21.074Z,42.45
2023-03-29T04:19:49.377Z,42.58
2023-03-29T04:22:20.126Z,42.54
2023-03-29T04:24:46.822Z,42.77
2023-03-29T04:27:14.029Z,42.79
2023-03-29T04:29:40.780Z,43.38
2023-03-29T04:32:07.588Z,42.96
2023-03-29T04:34:34.473Z,45.77
2023-03-29T04:37:03.499Z,44.59
2023-03-29T04:39:31.008Z,44.81
2023-03-29T04:44:48.257Z,46.54
2023-03-29T04:47:15.751Z,48.11
2023-03-29T04:49:44.797Z,48.18
2023-03-29T04:52:12.695Z,48.51
2023-03-29T04:54:39.876Z,49.14
2023-03-29T04:57:06.825Z,49.71
2023-03-29T04:59:33.677Z,49.17
2023-03-29T05:02:00.641Z,49.66
2023-03-29T05:04:28.317Z,48.29
2023-03-29T05:06:54.893Z,47.94
2023-03-29T05:09:21.478Z,47.82
2023-03-29T05:11:48.324Z,47.46
2023-03-29T05:14:15.337Z,46.22
2023-03-29T05:16:44.382Z,44.58
2023-03-29T05:19:11.303Z,42.87
2023-03-29T05:21:38.112Z,42.29
2023-03-29T05:24:07.086Z,41.43
2023-03-29T05:26:34.403Z,40.09
2023-03-29T05:35:03.487Z,38.71
2023-03-29T05:37:31.484Z,38.42
2023-03-29T05:40:06.133Z,38.60
2023-03-29T05:42:33.258Z,38.69
2023-03-29T05:45:00.499Z,37.66
2023-03-29T05:47:29.113Z,37.76
2023-03-29T05:49:58.033Z,37.40
2023-03-29T05:52:25.009Z,37.08
2023-03-29T05:54:59.110Z,37.08
2023-03-29T05:57:40.002Z,36.67
2023-03-29T06:00:14.497Z,36.05
2023-03-29T06:02:42.057Z,36.42
2023-03-29T06:05:08.948Z,36.27
2023-03-29T06:07:35.768Z,35.67
2023-03-29T06:10:04.115Z,35.57
2023-03-29T06:12:30.995Z,35.33
2023-03-29T06:15:01.129Z,35.16
2023-03-29T06:17:27.836Z,35.07
2023-03-29T06:19:56.700Z,35.28
2023-03-29T06:22:28.970Z,35.13
2023-03-29T06:24:55.594Z,34.93
2023-03-29T06:27:30.017Z,35.69
2023-03-29T06:29:57.866Z,36.53
2023-03-29T06:32:25.553Z,36.60
2023-03-29T06:34:54.625Z,36.54
2023-03-29T06:37:29.020Z,36.50
2023-03-29T06:39:58.127Z,37.10
2023-03-29T06:42:25.045Z,37.81
2023-03-29T06:44:52.656Z,37.30
2023-03-29T06:47:21.805Z,37.23
2023-03-29T06:49:50.479Z,37.98
2023-03-29T06:52:17.290Z,39.51
2023-03-29T06:54:48.508Z,38.61
2023-03-29T06:57:17.010Z,38.88
2023-03-29T06:59:52.134Z,38.56
2023-03-29T07:02:19.005Z,38.80
2023-03-29T07:04:47.797Z,40.17
2023-03-29T07:07:14.901Z,39.01
2023-03-29T07:09:41.825Z,39.99
2023-03-29T07:12:10.275Z,41.85
2023-03-29T07:14:41.692Z,40.21
2023-03-29T07:17:08.869Z,40.82
2023-03-29T07:19:36.696Z,39.68
2023-03-29T07:22:04.412Z,39.31
2023-03-29T07:24:33.830Z,39.71
2023-03-29T07:27:04.414Z,40.33
2023-03-29T07:29:31.514Z,39.78
2023-03-29T07:31:58.737Z,39.58
2023-03-29T07:34:25.301Z,40.43
2023-03-29T07:36:52.398Z,41.94
2023-03-29T07:39:19.429Z,41.92
2023-03-29T07:41:46.685Z,43.22
2023-03-29T07:44:20.692Z,43.50
2023-03-29T07:46:49.361Z,43.94
2023-03-29T07:49:23.411Z,45.35
2023-03-29T07:51:50.293Z,47.41
2023-03-29T07:54:17.180Z,48.10
2023-03-29T07:56:44.007Z,45.96
2023-03-29T07:59:10.916Z,45.31
2023-03-29T08:01:45.042Z,46.52
2023-03-29T08:06:52.764Z,47.55
2023-03-29T08:09:20.350Z,46.40
2023-03-29T08:11:49.095Z,44.14
2023-03-29T08:14:23.127Z,43.92
2023-03-29T08:16:57.325Z,43.86
2023-03-29T08:19:25.462Z,42.02
2023-03-29T08:21:52.968Z,42.44
2023-03-29T08:24:21.010Z,42.90
2023-03-29T08:26:48.723Z,40.91
2023-03-29T08:29:21.437Z,40.00
2023-03-29T08:31:48.462Z,39.51
2023-03-29T08:34:16.014Z,39.02
2023-03-29T08:36:44.792Z,40.40
2023-03-29T08:39:11.683Z,38.79
2023-03-29T08:41:42.257Z,38.06
2023-03-29T08:44:12.591Z,38.29
2023-03-29T08:46:39.734Z,38.36
2023-03-29T08:49:07.363Z,38.71
2023-03-29T08:51:34.944Z,37.01
2023-03-29T08:54:03.765Z,36.74
2023-03-29T08:56:32.835Z,37.56
2023-03-29T08:59:03.916Z,35.61
2023-03-29T09:01:31.563Z,36.01
2023-03-29T09:03:58.582Z,34.84
2023-03-29T09:06:26.892Z,34.93
2023-03-29T09:08:55.234Z,33.73
2023-03-29T09:11:23.434Z,34.36
2023-03-29T09:13:51.049Z,34.54
2023-03-29T09:16:25.018Z,34.28
2023-03-29T09:18:51.637Z,33.33
2023-03-29T09:21:18.392Z,33.75
2023-03-29T09:23:45.756Z,35.29
2023-03-29T09:26:13.367Z,34.37
2023-03-29T09:28:40.173Z,35.04
2023-03-29T09:31:06.949Z,35.65
2023-03-29T09:33:34.624Z,37.96
2023-03-29T09:36:02.182Z,39.53
2023-03-29T09:38:29.792Z,38.71
2023-03-29T09:40:59.113Z,38.51
2023-03-29T09:43:28.225Z,38.91
2023-03-29T09:45:56.816Z,39.17
2023-03-29T09:48:23.416Z,40.72
2023-03-29T09:50:52.361Z,40.77
2023-03-29T09:53:27.776Z,40.88
2023-03-29T09:55:56.361Z,40.91
2023-03-29T09:58:23.855Z,39.75
2023-03-29T10:00:50.860Z,42.37
2023-03-29T10:03:17.823Z,42.76
2023-03-29T10:05:44.570Z,42.04
2023-03-29T10:08:14.441Z,40.64
2023-03-29T10:10:41.824Z,39.89
2023-03-29T10:13:09.196Z,40.02
2023-03-29T10:15:37.982Z,39.38
2023-03-29T10:18:04.878Z,38.75
2023-03-29T10:20:32.047Z,40.08
2023-03-29T10:22:59.361Z,40.41
2023-03-29T10:25:26.018Z,39.62
2023-03-29T10:27:54.043Z,38.27
2023-03-29T10:30:23.812Z,37.16
2023-03-29T10:32:52.075Z,38.61
2023-03-29T10:35:26.162Z,38.78
2023-03-29T10:37:54.860Z,37.79
2023-03-29T10:40:21.600Z,37.95
2023-03-29T10:42:48.558Z,36.96
2023-03-29T10:45:15.142Z,36.31
2023-03-29T10:47:42.519Z,36.66
2023-03-29T10:50:09.289Z,36.57
2023-03-29T10:52:36.100Z,37.39
2023-03-29T10:55:03.983Z,38.90
2023-03-29T10:57:31.653Z,39.61
2023-03-29T11:02:38.905Z,40.61
2023-03-29T11:05:05.654Z,41.62
2023-03-29T11:07:32.665Z,42.60
2023-03-29T11:09:59.328Z,42.70
2023-03-29T11:12:26.080Z,42.07
2023-03-29T11:14:53.005Z,42.34
2023-03-29T11:17:21.958Z,42.90
2023-03-29T11:19:48.855Z,45.45
2023-03-29T11:22:15.668Z,46.71
2023-03-29T11:24:44.563Z,45.43
2023-03-29T11:27:11.981Z,44.45
2023-03-29T11:29:39.037Z,44.28
2023-03-29T11:32:05.551Z,43.91
2023-03-29T11:34:32.133Z,43.90
2023-03-29T11:37:00.816Z,45.09
2023-03-29T11:39:27.432Z,45.65
2023-03-29T11:41:54.420Z,45.51
2023-03-29T11:44:21.914Z,43.76
2023-03-29T11:46:48.877Z,42.58
2023-03-29T11:49:15.600Z,42.72
2023-03-29T11:51:42.417Z,42.79
2023-03-29T11:54:09.859Z,42.59
2023-03-29T11:56:37.732Z,43.26
2023-03-29T11:59:04.501Z,44.06
2023-03-29T12:01:30.938Z,44.91
2023-03-29T12:04:00.055Z,44.36
2023-03-29T12:06:26.994Z,43.69
2023-03-29T12:08:53.948Z,43.70
2023-03-29T12:11:22.493Z,43.85
2023-03-29T12:13:52.247Z,45.00
2023-03-29T12:16:19.389Z,44.56
2023-03-29T12:18:46.318Z,47.56
2023-03-29T12:21:13.464Z,45.41
2023-03-29T12:23:40.689Z,45.67
2023-03-29T12:26:09.027Z,44.84
2023-03-29T12:28:43.123Z,44.45
2023-03-29T12:31:09.769Z,42.44
2023-03-29T12:33:36.396Z,41.74
2023-03-29T12:36:04.500Z,40.14
2023-03-29T12:38:31.222Z,41.29
2023-03-29T12:41:05.563Z,40.04
2023-03-29T12:43:33.725Z,38.96
2023-03-29T12:46:00.343Z,37.41
2023-03-29T12:48:30.192Z,36.69
2023-03-29T12:50:57.067Z,36.52
2023-03-29T12:53:24.766Z,35.54
2023-03-29T12:55:55.797Z,35.43
2023-03-29T12:58:22.771Z,35.92
2023-03-29T13:00:50.133Z,34.12
2023-03-29T13:03:18.779Z,34.64
2023-03-29T13:05:49.295Z,32.83
2023-03-29T13:08:18.313Z,32.31
2023-03-29T13:10:45.172Z,32.64
2023-03-29T13:13:12.657Z,32.56
2023-03-29T13:15:39.576Z,33.25
2023-03-29T13:18:08.150Z,33.77
2023-03-29T13:20:41.596Z,32.96
2023-03-29T13:23:09.217Z,33.25
2023-03-29T13:25:35.811Z,34.23
2023-03-29T13:28:03.209Z,34.28
2023-03-29T13:30:32.839Z,32.80
2023-03-29T13:33:00.382Z,32.85
2023-03-29T13:35:33.984Z,31.61
2023-03-29T13:38:01.352Z,30.82
2023-03-29T13:40:30.110Z,30.64
2023-03-29T13:45:40.209Z,30.79
2023-03-29T13:48:07.325Z,30.24
2023-03-29T13:50:35.576Z,29.82
2023-03-29T13:53:03.196Z,30.28
2023-03-29T13:55:32.752Z,30.53
2023-03-29T13:57:59.835Z,32.34
2023-03-29T14:00:31.234Z,31.94
2023-03-29T14:02:58.251Z,31.52
2023-03-29T14:05:27.605Z,31.31
2023-03-29T14:07:54.506Z,31.01
2023-03-29T14:10:24.761Z,30.47
2023-03-29T14:12:54.351Z,30.00
2023-03-29T14:15:23.806Z,30.19
2023-03-29T14:17:50.618Z,30.42
2023-03-29T14:20:21.107Z,29.32
2023-03-29T14:22:48.821Z,29.20
2023-03-29T14:25:15.576Z,30.99
2023-03-29T14:27:42.360Z,30.99
2023-03-29T14:30:09.181Z,31.06
2023-03-29T14:32:39.333Z,31.31
2023-03-29T14:35:10.499Z,31.08
2023-03-29T14:37:37.065Z,30.31
2023-03-29T14:40:04.517Z,29.28
2023-03-29T14:42:32.180Z,28.62
2023-03-29T14:45:00.971Z,28.41
2023-03-29T14:47:30.443Z,28.72
2023-03-29T14:49:58.108Z,28.48
2023-03-29T14:52:28.331Z,29.48
2023-03-29T14:54:55.976Z,30.26
2023-03-29T14:57:25.778Z,30.73
2023-03-29T14:59:52.688Z,31.73
2023-03-29T15:02:21.398Z,32.26
2023-03-29T15:04:48.954Z,34.05
2023-03-29T15:07:15.506Z,32.94
2023-03-29T15:09:42.454Z,32.76
2023-03-29T15:12:10.738Z,32.92
2023-03-29T15:14:38.021Z,31.97
2023-03-29T15:17:06.008Z,31.88
2023-03-29T15:19:32.792Z,31.90
2023-03-29T15:22:02.544Z,31.63
2023-03-29T15:24:30.550Z,30.60
2023-03-29T15:26:57.140Z,29.46
2023-03-29T15:29:29.065Z,29.39
2023-03-29T15:31:59.369Z,29.47
2023-03-29T15:34:26.085Z,30.07
2023-03-29T15:36:53.554Z,30.59
2023-03-29T15:39:20.113Z,30.84
2023-03-29T15:41:49.557Z,30.79
2023-03-29T15:44:17.370Z,30.42
2023-03-29T15:46:43.975Z,32.23
2023-03-29T15:49:13.041Z,33.10
2023-03-29T15:51:39.781Z,33.35
2023-03-29T15:54:06.719Z,34.84
2023-03-29T15:56:33.548Z,35.73
2023-03-29T15:59:00.104Z,35.69
2023-03-29T16:01:27.089Z,35.57
2023-03-29T16:03:53.995Z,35.40
2023-03-29T16:06:20.767Z,35.55
2023-03-29T16:08:47.345Z,36.47
2023-03-29T16:11:14.745Z,35.33
2023-03-29T16:13:41.196Z,34.77
2023-03-29T16:16:08.188Z,34.18
2023-03-29T16:18:40.333Z,34.36
2023-03-29T16:21:08.415Z,34.00
2023-03-29T16:23:35.987Z,33.27
2023-03-29T16:26:03.046Z,32.76
2023-03-29T16:28:30.075Z,33.03
2023-03-29T16:30:56.963Z,32.37
2023-03-29T16:33:23.794Z,33.59
2023-03-29T16:35:50.640Z,32.98
2023-03-29T16:38:17.513Z,33.42
2023-03-29T16:40:45.130Z,34.22
2023-03-29T16:43:14.132Z,34.23
2023-03-29T16:45:41.594Z,35.10
2023-03-29T16:48:09.321Z,35.60
2023-03-29T16:50:36.206Z,36.24
2023-03-29T16:53:03.096Z,36.24
2023-03-29T16:55:30.546Z,36.40
2023-03-29T16:57:57.071Z,35.80
2023-03-29T17:00:25.062Z,35.22
2023-03-29T17:02:51.881Z,34.91
2023-03-29T17:05:18.994Z,35.91
2023-03-29T17:07:47.004Z,35.40
2023-03-29T17:10:13.629Z,34.99
2023-03-29T17:12:59.592Z,34.88
2023-03-29T17:15:37.386Z,35.11
2023-03-29T17:18:06.154Z,35.04
2023-03-29T17:20:33.030Z,34.97
2023-03-29T17:22:59.893Z,35.39
2023-03-29T17:25:26.697Z,35.31
2023-03-29T17:27:53.592Z,36.36
2023-03-29T17:30:20.968Z,36.65
2023-03-29T17:32:48.416Z,36.99
2023-03-29T17:35:17.577Z,37.18
2023-03-29T17:37:44.148Z,36.96
2023-03-29T17:40:10.630Z,36.85
2023-03-29T17:42:37.427Z,37.05
2023-03-29T17:45:05.789Z,37.30
2023-03-29T17:47:33.611Z,38.42
2023-03-29T17:50:00.441Z,38.10
2023-03-29T17:52:26.987Z,37.79
2023-03-29T17:54:53.603Z,37.21
2023-03-29T17:57:20.489Z,36.97
2023-03-29T17:59:48.030Z,37.08
2023-03-29T18:02:17.131Z,37.90
2023-03-29T18:04:43.942Z,38.69
2023-03-29T18:07:10.535Z,37.94
2023-03-29T18:09:38.045Z,37.70
2023-03-29T18:12:05.306Z,38.26
2023-03-29T18:14:32.110Z,38.73
2023-03-29T18:16:58.763Z,39.16
2023-03-29T18:19:25.641Z,38.96
2023-03-29T18:21:52.082Z,39.65
2023-03-29T18:24:18.974Z,39.98
2023-03-29T18:26:45.802Z,39.94
2023-03-29T18:29:14.561Z,39.51
2023-03-29T18:31:41.354Z,39.72
2023-03-29T18:34:10.180Z,39.95
2023-03-29T18:36:38.486Z,40.14
2023-03-29T18:39:05.097Z,40.86
2023-03-29T18:41:32.374Z,42.27
2023-03-29T18:43:58.912Z,42.11
2023-03-29T18:46:25.402Z,43.78
2023-03-29T18:48:59.476Z,43.38
2023-03-29T18:51:28.379Z,43.47
2023-03-29T18:53:56.892Z,43.55
2023-03-29T18:56:24.238Z,44.33
2023-03-29T18:58:50.918Z,43.13
2023-03-29T19:01:17.751Z,41.89
2023-03-29T19:03:44.794Z,41.58
2023-03-29T19:06:14.818Z,41.77
2023-03-29T19:08:41.585Z,41.58
2023-03-29T19:11:10.087Z,41.91
2023-03-29T19:13:37.757Z,42.63
2023-03-29T19:18:56.937Z,43.39
2023-03-29T19:21:23.756Z,42.62
2023-03-29T19:23:50.990Z,41.87
2023-03-29T19:26:19.743Z,41.08
2023-03-29T19:28:47.353Z,40.72
2023-03-29T19:31:16.100Z,40.79
2023-03-29T19:33:43.438Z,42.33
2023-03-29T19:36:12.687Z,42.26
2023-03-29T19:38:39.179Z,41.12
2023-03-29T19:41:05.712Z,40.96
2023-03-29T19:43:32.606Z,40.48
2023-03-29T19:45:59.163Z,40.79
2023-03-29T19:48:26.205Z,43.52
2023-03-29T19:50:52.906Z,43.73
2023-03-29T19:56:09.557Z,45.29
2023-03-29T19:58:36.510Z,43.88
2023-03-29T20:01:03.360Z,42.09
2023-03-29T20:03:30.368Z,40.85
2023-03-29T20:05:57.812Z,40.34
2023-03-29T20:08:24.690Z,40.26
2023-03-29T20:10:51.565Z,40.94
2023-03-29T20:13:31.247Z,39.97
2023-03-29T20:16:03.797Z,39.71
2023-03-29T20:18:30.646Z,40.44
2023-03-29T20:20:59.226Z,41.07
2023-03-29T20:23:30.118Z,40.44
2023-03-29T20:25:57.518Z,40.36
2023-03-29T20:28:25.127Z,39.92
2023-03-29T20:30:53.851Z,39.23
2023-03-29T20:33:20.311Z,39.71
2023-03-29T20:35:46.791Z,40.98
2023-03-29T20:38:13.554Z,41.94
2023-03-29T20:40:39.962Z,42.02
2023-03-29T20:43:06.540Z,41.50
2023-03-29T20:45:42.801Z,40.73
2023-03-29T20:48:17.358Z,41.00
2023-03-29T20:50:44.204Z,40.85
2023-03-29T20:53:18.618Z,40.43
2023-03-29T20:55:46.119Z,41.50
2023-03-29T20:58:13.704Z,42.00
2023-03-29T21:00:40.497Z,41.67
2023-03-29T21:03:08.179Z,42.32
2023-03-29T21:05:35.212Z,43.93
2023-03-29T21:08:05.876Z,43.70
2023-03-29T21:10:34.882Z,44.04
2023-03-29T21:13:03.530Z,45.63
2023-03-29T21:15:33.374Z,43.78
2023-03-29T21:20:29.845Z,47.48
2023-03-29T21:22:57.291Z,47.61
2023-03-29T21:25:24.063Z,45.51
2023-03-29T21:27:51.067Z,43.79
2023-03-29T21:30:19.253Z,43.57
2023-03-29T21:32:45.856Z,43.36
2023-03-29T21:35:13.603Z,43.79
2023-03-29T21:37:40.592Z,42.18
2023-03-29T21:40:08.007Z,41.74
2023-03-29T21:42:35.635Z,41.63
2023-03-29T21:45:09.652Z,40.88
2023-03-29T21:47:36.660Z,42.67
2023-03-29T21:50:05.342Z,43.31
2023-03-29T21:52:32.145Z,42.54
2023-03-29T21:55:01.202Z,42.64
2023-03-29T21:57:30.055Z,42.71
2023-03-29T21:59:57.289Z,42.42
2023-03-29T22:02:24.126Z,44.64
2023-03-29T22:04:51.001Z,44.17
2023-03-29T22:07:18.321Z,46.40
2023-03-29T22:09:49.351Z,46.95
2023-03-29T22:12:16.166Z,46.01
2023-03-29T22:14:43.811Z,44.86
2023-03-29T22:17:12.906Z,43.95
2023-03-29T22:19:39.945Z,42.77
2023-03-29T22:22:09.444Z,43.77
2023-03-29T22:24:36.258Z,44.29
2023-03-29T22:27:06.942Z,44.04
2023-03-29T22:29:33.561Z,45.57
2023-03-29T22:32:00.604Z,46.35
2023-03-29T22:34:27.195Z,46.55
2023-03-29T22:36:53.744Z,46.64
2023-03-29T22:39:21.364Z,47.92
2023-03-29T22:41:48.204Z,47.65
2023-03-29T22:44:15.656Z,47.96
2023-03-29T22:46:42.519Z,47.20
2023-03-29T22:49:09.781Z,47.37
2023-03-29T22:51:39.466Z,46.54
2023-03-29T22:54:06.760Z,47.12
2023-03-29T22:56:34.036Z,46.01
2023-03-29T22:59:07.658Z,46.59
2023-03-29T23:01:34.546Z,46.84
2023-03-29T23:04:03.945Z,46.73
2023-03-29T23:06:31.252Z,46.29
2023-03-29T23:08:58.662Z,47.13
2023-03-29T23:11:25.451Z,48.62
2023-03-29T23:13:53.038Z,47.86
2023-03-29T23:16:19.660Z,47.02
2023-03-29T23:18:49.466Z,46.90
2023-03-29T23:21:16.813Z,47.53
2023-03-29T23:23:45.699Z,46.95
2023-03-29T23:26:13.230Z,47.11
2023-03-29T23:28:40.971Z,47.26
2023-03-29T23:31:14.751Z,47.79
2023-03-29T23:33:45.180Z,47.85
2023-03-29T23:36:12.385Z,48.65
2023-03-29T23:38:39.738Z,46.65
2023-03-29T23:41:06.952Z,47.84
2023-03-29T23:43:36.122Z,47.25
2023-03-29T23:46:03.155Z,46.69
2023-03-29T23:48:29.967Z,47.48
2023-03-29T23:50:58.806Z,48.61
2023-03-29T23:53:25.743Z,48.43
2023-03-29T23:55:52.609Z,47.57
2023-03-29T23:58:19.849Z,48.49
